Pettibone, Texas
Current Conditions -  °F | °C
As of 12:15 PM on Saturday 25 Oct 2014 (Local Time) from KT35 Reporting Station
Clear Clear  
Wind Chill: 82°   Ceiling: Unl
Heat Index: 82°   Visibility: 10mi
Dew Point: 60°   Wind: 7mph
Humidity: 48%   Direction: 220°SW
Pressure: 30.17"   Gusts: NA
Location:  30.8332°N, 96.9826°W
Report Text: KT35 251715Z AUTO 22006KT 10SM CLR 28/16 A3017 RMK AO2 T02770157
Loading
Personal Weather Stations






























Interactive Weather Map
Tropical Storm Tracking
New forecast layout! Learn more

10-Day Weather Forecast

Advertisements
Track Severe Weather on mobile